sensor_id;sensor_type;location;lat;lon;timestamp;P1;durP1;ratioP1;P2;durP2;ratioP2
67712;SDS011;54503;55.784;49.138;2022-09-09T00:04:23;6.87;;;3.40;;
67712;SDS011;54503;55.784;49.138;2022-09-09T00:31:51;8.95;;;3.52;;
67712;SDS011;54503;55.784;49.138;2022-09-09T00:37:11;7.73;;;3.57;;
67712;SDS011;54503;55.784;49.138;2022-09-09T00:47:50;9.55;;;3.77;;
67712;SDS011;54503;55.784;49.138;2022-09-09T00:58:31;7.87;;;3.83;;
67712;SDS011;54503;55.784;49.138;2022-09-09T01:03:38;9.40;;;3.77;;
67712;SDS011;54503;55.784;49.138;2022-09-09T01:30:57;9.20;;;4.15;;
67712;SDS011;54503;55.784;49.138;2022-09-09T01:42:00;8.07;;;3.90;;
67712;SDS011;54503;55.784;49.138;2022-09-09T01:47:20;6.33;;;3.58;;
67712;SDS011;54503;55.784;49.138;2022-09-09T01:52:25;6.07;;;3.30;;
67712;SDS011;54503;55.784;49.138;2022-09-09T01:57:48;5.93;;;3.20;;
67712;SDS011;54503;55.784;49.138;2022-09-09T02:08:14;6.97;;;2.80;;
67712;SDS011;54503;55.784;49.138;2022-09-09T02:13:18;6.97;;;3.03;;
67712;SDS011;54503;55.784;49.138;2022-09-09T02:23:52;6.37;;;2.62;;
67712;SDS011;54503;55.784;49.138;2022-09-09T02:29:13;4.80;;;2.53;;
67712;SDS011;54503;55.784;49.138;2022-09-09T02:34:31;4.62;;;2.27;;
67712;SDS011;54503;55.784;49.138;2022-09-09T02:39:38;4.50;;;2.10;;
67712;SDS011;54503;55.784;49.138;2022-09-09T02:44:46;4.57;;;2.13;;
67712;SDS011;54503;55.784;49.138;2022-09-09T02:50:08;5.97;;;2.22;;
67712;SDS011;54503;55.784;49.138;2022-09-09T02:55:29;6.30;;;1.97;;
67712;SDS011;54503;55.784;49.138;2022-09-09T03:00:47;3.80;;;1.77;;
67712;SDS011;54503;55.784;49.138;2022-09-09T03:05:52;4.05;;;1.85;;
67712;SDS011;54503;55.784;49.138;2022-09-09T03:10:58;3.67;;;1.70;;
67712;SDS011;54503;55.784;49.138;2022-09-09T03:16:04;3.80;;;1.62;;
67712;SDS011;54503;55.784;49.138;2022-09-09T03:21:23;3.97;;;1.80;;
67712;SDS011;54503;55.784;49.138;2022-09-09T03:26:42;4.28;;;1.50;;
67712;SDS011;54503;55.784;49.138;2022-09-09T03:31:48;3.27;;;1.40;;
67712;SDS011;54503;55.784;49.138;2022-09-09T03:37:05;3.65;;;1.27;;
67712;SDS011;54503;55.784;49.138;2022-09-09T03:47:30;4.08;;;1.05;;
67712;SDS011;54503;55.784;49.138;2022-09-09T03:52:36;3.37;;;1.07;;
67712;SDS011;54503;55.784;49.138;2022-09-09T03:57:42;3.53;;;1.00;;
67712;SDS011;54503;55.784;49.138;2022-09-09T04:03:01;2.60;;;0.93;;
67712;SDS011;54503;55.784;49.138;2022-09-09T04:08:20;2.60;;;1.00;;
67712;SDS011;54503;55.784;49.138;2022-09-09T04:13:40;2.50;;;0.90;;
67712;SDS011;54503;55.784;49.138;2022-09-09T04:18:45;4.25;;;1.05;;
67712;SDS011;54503;55.784;49.138;2022-09-09T04:23:53;2.63;;;0.80;;
67712;SDS011;54503;55.784;49.138;2022-09-09T04:29:10;2.50;;;0.90;;
67712;SDS011;54503;55.784;49.138;2022-09-09T04:34:15;3.10;;;1.00;;
67712;SDS011;54503;55.784;49.138;2022-09-09T04:39:34;2.00;;;0.80;;
67712;SDS011;54503;55.784;49.138;2022-09-09T04:44:54;2.05;;;0.70;;
67712;SDS011;54503;55.784;49.138;2022-09-09T04:50:13;1.95;;;0.70;;
67712;SDS011;54503;55.784;49.138;2022-09-09T04:55:36;3.33;;;0.70;;
67712;SDS011;54503;55.784;49.138;2022-09-09T05:00:41;2.70;;;0.85;;
67712;SDS011;54503;55.784;49.138;2022-09-09T05:05:47;2.65;;;0.70;;
67712;SDS011;54503;55.784;49.138;2022-09-09T05:16:48;2.70;;;0.90;;
67712;SDS011;54503;55.784;49.138;2022-09-09T05:22:07;2.70;;;1.00;;
67712;SDS011;54503;55.784;49.138;2022-09-09T05:27:13;4.60;;;2.42;;
67712;SDS011;54503;55.784;49.138;2022-09-09T05:32:19;4.35;;;0.88;;
67712;SDS011;54503;55.784;49.138;2022-09-09T05:37:24;2.63;;;0.40;;
67712;SDS011;54503;55.784;49.138;2022-09-09T05:42:43;1.52;;;0.50;;
67712;SDS011;54503;55.784;49.138;2022-09-09T05:48:02;9.43;;;2.80;;
67712;SDS011;54503;55.784;49.138;2022-09-09T05:53:21;3.05;;;0.50;;
67712;SDS011;54503;55.784;49.138;2022-09-09T05:58:27;4.53;;;0.50;;
67712;SDS011;54503;55.784;49.138;2022-09-09T06:03:34;1.27;;;0.50;;
67712;SDS011;54503;55.784;49.138;2022-09-09T06:08:40;3.67;;;0.60;;
67712;SDS011;54503;55.784;49.138;2022-09-09T06:14:00;1.23;;;0.40;;
67712;SDS011;54503;55.784;49.138;2022-09-09T06:19:19;3.87;;;1.40;;
67712;SDS011;54503;55.784;49.138;2022-09-09T06:24:38;10.68;;;4.45;;
67712;SDS011;54503;55.784;49.138;2022-09-09T06:29:44;1.27;;;0.40;;
67712;SDS011;54503;55.784;49.138;2022-09-09T06:34:49;1.37;;;0.37;;
67712;SDS011;54503;55.784;49.138;2022-09-09T06:39:55;3.40;;;0.83;;
67712;SDS011;54503;55.784;49.138;2022-09-09T06:45:00;4.60;;;0.70;;
67712;SDS011;54503;55.784;49.138;2022-09-09T06:50:21;1.92;;;0.60;;
67712;SDS011;54503;55.784;49.138;2022-09-09T06:55:40;5.50;;;2.43;;
67712;SDS011;54503;55.784;49.138;2022-09-09T07:00:46;5.40;;;1.15;;
67712;SDS011;54503;55.784;49.138;2022-09-09T07:16:51;2.12;;;0.68;;
67712;SDS011;54503;55.784;49.138;2022-09-09T07:21:56;3.95;;;1.30;;
67712;SDS011;54503;55.784;49.138;2022-09-09T07:27:04;0.90;;;0.30;;
67712;SDS011;54503;55.784;49.138;2022-09-09T07:32:23;5.95;;;1.05;;
67712;SDS011;54503;55.784;49.138;2022-09-09T07:37:42;5.70;;;0.80;;
67712;SDS011;54503;55.784;49.138;2022-09-09T07:43:01;1.17;;;0.30;;
67712;SDS011;54503;55.784;49.138;2022-09-09T07:48:25;3.70;;;0.70;;
67712;SDS011;54503;55.784;49.138;2022-09-09T07:53:31;2.20;;;0.40;;
67712;SDS011;54503;55.784;49.138;2022-09-09T07:58:37;2.90;;;0.60;;
67712;SDS011;54503;55.784;49.138;2022-09-09T08:03:47;1.83;;;0.40;;
67712;SDS011;54503;55.784;49.138;2022-09-09T08:09:18;1.70;;;0.37;;
67712;SDS011;54503;55.784;49.138;2022-09-09T08:14:23;1.67;;;0.50;;
67712;SDS011;54503;55.784;49.138;2022-09-09T08:19:29;1.33;;;0.50;;
67712;SDS011;54503;55.784;49.138;2022-09-09T08:25:08;2.12;;;0.85;;
67712;SDS011;54503;55.784;49.138;2022-09-09T08:30:33;2.50;;;0.65;;
67712;SDS011;54503;55.784;49.138;2022-09-09T08:35:53;4.97;;;0.53;;
67712;SDS011;54503;55.784;49.138;2022-09-09T08:41:01;0.82;;;0.30;;
67712;SDS011;54503;55.784;49.138;2022-09-09T08:51:44;1.57;;;0.30;;
67712;SDS011;54503;55.784;49.138;2022-09-09T08:56:49;2.80;;;0.72;;
67712;SDS011;54503;55.784;49.138;2022-09-09T09:07:39;1.40;;;0.27;;
67712;SDS011;54503;55.784;49.138;2022-09-09T09:12:51;1.20;;;0.30;;
67712;SDS011;54503;55.784;49.138;2022-09-09T09:18:10;1.10;;;0.30;;
67712;SDS011;54503;55.784;49.138;2022-09-09T09:28:40;1.40;;;0.53;;
67712;SDS011;54503;55.784;49.138;2022-09-09T09:39:31;1.45;;;0.30;;
67712;SDS011;54503;55.784;49.138;2022-09-09T09:44:37;3.57;;;0.53;;
67712;SDS011;54503;55.784;49.138;2022-09-09T09:55:48;1.72;;;0.50;;
67712;SDS011;54503;55.784;49.138;2022-09-09T10:06:28;3.05;;;0.60;;
67712;SDS011;54503;55.784;49.138;2022-09-09T10:23:10;3.42;;;0.60;;
67712;SDS011;54503;55.784;49.138;2022-09-09T11:01:25;5.37;;;0.60;;
67712;SDS011;54503;55.784;49.138;2022-09-09T11:06:32;3.93;;;0.60;;
67712;SDS011;54503;55.784;49.138;2022-09-09T11:11:52;4.08;;;0.45;;
67712;SDS011;54503;55.784;49.138;2022-09-09T11:22:39;3.53;;;0.70;;
67712;SDS011;54503;55.784;49.138;2022-09-09T11:44:30;5.50;;;1.05;;
67712;SDS011;54503;55.784;49.138;2022-09-09T11:49:47;3.33;;;0.90;;
67712;SDS011;54503;55.784;49.138;2022-09-09T11:54:54;6.20;;;0.60;;
67712;SDS011;54503;55.784;49.138;2022-09-09T12:05:51;3.40;;;1.20;;
67712;SDS011;54503;55.784;49.138;2022-09-09T12:16:45;4.97;;;0.70;;
67712;SDS011;54503;55.784;49.138;2022-09-09T12:32:45;4.90;;;1.00;;
67712;SDS011;54503;55.784;49.138;2022-09-09T12:43:30;5.80;;;1.70;;
67712;SDS011;54503;55.784;49.138;2022-09-09T12:48:49;3.35;;;1.10;;
67712;SDS011;54503;55.784;49.138;2022-09-09T12:54:20;3.90;;;0.95;;
67712;SDS011;54503;55.784;49.138;2022-09-09T12:59:27;6.10;;;0.80;;
67712;SDS011;54503;55.784;49.138;2022-09-09T13:04:37;6.75;;;0.85;;
67712;SDS011;54503;55.784;49.138;2022-09-09T13:09:54;6.03;;;0.93;;
67712;SDS011;54503;55.784;49.138;2022-09-09T13:15:00;1.77;;;0.50;;
67712;SDS011;54503;55.784;49.138;2022-09-09T13:20:20;2.90;;;0.70;;
67712;SDS011;54503;55.784;49.138;2022-09-09T13:25:40;2.85;;;0.90;;
67712;SDS011;54503;55.784;49.138;2022-09-09T13:36:46;5.15;;;0.60;;
67712;SDS011;54503;55.784;49.138;2022-09-09T13:41:52;3.17;;;1.10;;
67712;SDS011;54503;55.784;49.138;2022-09-09T13:52:53;4.03;;;0.80;;
67712;SDS011;54503;55.784;49.138;2022-09-09T13:57:59;3.53;;;0.90;;
67712;SDS011;54503;55.784;49.138;2022-09-09T14:03:06;2.35;;;0.80;;
67712;SDS011;54503;55.784;49.138;2022-09-09T14:08:25;3.15;;;1.10;;
67712;SDS011;54503;55.784;49.138;2022-09-09T14:13:45;3.73;;;0.67;;
67712;SDS011;54503;55.784;49.138;2022-09-09T14:19:04;3.40;;;0.70;;
67712;SDS011;54503;55.784;49.138;2022-09-09T14:24:10;4.30;;;1.13;;
67712;SDS011;54503;55.784;49.138;2022-09-09T14:29:16;6.37;;;0.80;;
67712;SDS011;54503;55.784;49.138;2022-09-09T14:34:22;7.35;;;0.95;;
67712;SDS011;54503;55.784;49.138;2022-09-09T14:39:32;4.57;;;1.00;;
67712;SDS011;54503;55.784;49.138;2022-09-09T14:44:51;3.65;;;1.05;;
67712;SDS011;54503;55.784;49.138;2022-09-09T14:50:31;8.75;;;2.08;;
67712;SDS011;54503;55.784;49.138;2022-09-09T14:55:36;6.23;;;1.43;;
67712;SDS011;54503;55.784;49.138;2022-09-09T15:00:42;4.42;;;1.50;;
67712;SDS011;54503;55.784;49.138;2022-09-09T15:11:40;14.83;;;3.80;;
67712;SDS011;54503;55.784;49.138;2022-09-09T15:16:59;4.92;;;1.50;;
67712;SDS011;54503;55.784;49.138;2022-09-09T15:22:05;6.47;;;2.40;;
67712;SDS011;54503;55.784;49.138;2022-09-09T15:27:11;3.80;;;1.40;;
67712;SDS011;54503;55.784;49.138;2022-09-09T15:32:18;5.20;;;0.98;;
67712;SDS011;54503;55.784;49.138;2022-09-09T15:37:48;6.20;;;1.37;;
67712;SDS011;54503;55.784;49.138;2022-09-09T15:42:53;4.37;;;1.20;;
67712;SDS011;54503;55.784;49.138;2022-09-09T15:48:00;4.30;;;1.77;;
67712;SDS011;54503;55.784;49.138;2022-09-09T15:53:19;6.10;;;2.00;;
67712;SDS011;54503;55.784;49.138;2022-09-09T15:58:38;5.42;;;1.72;;
67712;SDS011;54503;55.784;49.138;2022-09-09T16:03:58;3.70;;;1.70;;
67712;SDS011;54503;55.784;49.138;2022-09-09T16:09:05;5.47;;;1.67;;
67712;SDS011;54503;55.784;49.138;2022-09-09T16:14:24;4.28;;;1.60;;
67712;SDS011;54503;55.784;49.138;2022-09-09T16:19:30;5.03;;;1.40;;
67712;SDS011;54503;55.784;49.138;2022-09-09T16:24:49;6.67;;;1.70;;
67712;SDS011;54503;55.784;49.138;2022-09-09T16:30:08;3.70;;;1.47;;
67712;SDS011;54503;55.784;49.138;2022-09-09T16:35:27;8.93;;;1.70;;
67712;SDS011;54503;55.784;49.138;2022-09-09T16:40:47;3.80;;;1.40;;
67712;SDS011;54503;55.784;49.138;2022-09-09T16:45:52;4.55;;;1.45;;
67712;SDS011;54503;55.784;49.138;2022-09-09T16:56:36;3.30;;;1.42;;
67712;SDS011;54503;55.784;49.138;2022-09-09T17:01:56;3.80;;;1.60;;
67712;SDS011;54503;55.784;49.138;2022-09-09T17:07:16;19.12;;;7.08;;
67712;SDS011;54503;55.784;49.138;2022-09-09T17:12:21;5.23;;;1.80;;
67712;SDS011;54503;55.784;49.138;2022-09-09T17:17:46;6.83;;;3.17;;
67712;SDS011;54503;55.784;49.138;2022-09-09T17:22:51;5.22;;;2.30;;
67712;SDS011;54503;55.784;49.138;2022-09-09T17:27:57;5.37;;;2.10;;
67712;SDS011;54503;55.784;49.138;2022-09-09T17:33:16;4.40;;;2.12;;
67712;SDS011;54503;55.784;49.138;2022-09-09T17:38:35;5.20;;;2.00;;
67712;SDS011;54503;55.784;49.138;2022-09-09T17:43:54;5.65;;;2.02;;
67712;SDS011;54503;55.784;49.138;2022-09-09T17:49:02;7.17;;;2.15;;
67712;SDS011;54503;55.784;49.138;2022-09-09T17:59:48;5.30;;;1.80;;
67712;SDS011;54503;55.784;49.138;2022-09-09T18:05:07;5.30;;;1.43;;
67712;SDS011;54503;55.784;49.138;2022-09-09T18:10:26;4.50;;;1.60;;
67712;SDS011;54503;55.784;49.138;2022-09-09T18:21:28;5.05;;;1.52;;
67712;SDS011;54503;55.784;49.138;2022-09-09T18:26:18;3.67;;;1.30;;
67712;SDS011;54503;55.784;49.138;2022-09-09T18:31:25;3.67;;;1.27;;
67712;SDS011;54503;55.784;49.138;2022-09-09T18:36:52;3.87;;;1.27;;
67712;SDS011;54503;55.784;49.138;2022-09-09T18:42:11;5.20;;;1.27;;
67712;SDS011;54503;55.784;49.138;2022-09-09T18:47:30;2.92;;;0.90;;
67712;SDS011;54503;55.784;49.138;2022-09-09T18:53:27;2.13;;;0.87;;
67712;SDS011;54503;55.784;49.138;2022-09-09T18:58:17;2.92;;;1.35;;
67712;SDS011;54503;55.784;49.138;2022-09-09T19:03:36;4.70;;;1.33;;
67712;SDS011;54503;55.784;49.138;2022-09-09T19:08:56;3.47;;;1.10;;
67712;SDS011;54503;55.784;49.138;2022-09-09T19:14:15;4.70;;;1.12;;
67712;SDS011;54503;55.784;49.138;2022-09-09T19:19:35;4.03;;;1.23;;
67712;SDS011;54503;55.784;49.138;2022-09-09T19:24:41;2.50;;;0.88;;
67712;SDS011;54503;55.784;49.138;2022-09-09T19:30:00;3.13;;;1.07;;
67712;SDS011;54503;55.784;49.138;2022-09-09T19:35:21;2.83;;;1.10;;
67712;SDS011;54503;55.784;49.138;2022-09-09T19:40:40;5.30;;;1.20;;
67712;SDS011;54503;55.784;49.138;2022-09-09T19:46:01;2.80;;;1.03;;
67712;SDS011;54503;55.784;49.138;2022-09-09T19:56:28;2.15;;;0.80;;
67712;SDS011;54503;55.784;49.138;2022-09-09T20:01:34;3.43;;;1.00;;
67712;SDS011;54503;55.784;49.138;2022-09-09T20:06:41;2.22;;;0.90;;
67712;SDS011;54503;55.784;49.138;2022-09-09T20:12:00;4.50;;;0.90;;
67712;SDS011;54503;55.784;49.138;2022-09-09T20:17:19;2.58;;;0.68;;
67712;SDS011;54503;55.784;49.138;2022-09-09T20:22:39;2.75;;;0.85;;
67712;SDS011;54503;55.784;49.138;2022-09-09T20:27:45;2.63;;;0.63;;
67712;SDS011;54503;55.784;49.138;2022-09-09T20:32:50;2.95;;;0.70;;
67712;SDS011;54503;55.784;49.138;2022-09-09T20:38:09;5.25;;;1.00;;
67712;SDS011;54503;55.784;49.138;2022-09-09T20:43:14;2.57;;;0.87;;
67712;SDS011;54503;55.784;49.138;2022-09-09T20:48:36;4.25;;;0.88;;
67712;SDS011;54503;55.784;49.138;2022-09-09T20:53:56;2.85;;;0.90;;
67712;SDS011;54503;55.784;49.138;2022-09-09T21:04:36;3.00;;;0.93;;
67712;SDS011;54503;55.784;49.138;2022-09-09T21:09:57;4.50;;;1.10;;
67712;SDS011;54503;55.784;49.138;2022-09-09T21:15:03;4.00;;;1.00;;
67712;SDS011;54503;55.784;49.138;2022-09-09T21:20:09;2.98;;;0.93;;
67712;SDS011;54503;55.784;49.138;2022-09-09T21:25:15;2.50;;;1.00;;
67712;SDS011;54503;55.784;49.138;2022-09-09T21:30:34;3.70;;;0.98;;
67712;SDS011;54503;55.784;49.138;2022-09-09T21:35:54;4.40;;;1.10;;
67712;SDS011;54503;55.784;49.138;2022-09-09T21:46:26;4.00;;;0.95;;
67712;SDS011;54503;55.784;49.138;2022-09-09T21:51:32;2.97;;;1.10;;
67712;SDS011;54503;55.784;49.138;2022-09-09T21:56:51;7.03;;;1.20;;
67712;SDS011;54503;55.784;49.138;2022-09-09T22:02:29;4.45;;;1.10;;
67712;SDS011;54503;55.784;49.138;2022-09-09T22:07:35;3.47;;;1.07;;
67712;SDS011;54503;55.784;49.138;2022-09-09T22:12:55;4.50;;;1.20;;
67712;SDS011;54503;55.784;49.138;2022-09-09T22:18:00;3.05;;;1.10;;
67712;SDS011;54503;55.784;49.138;2022-09-09T22:23:29;4.72;;;1.00;;
67712;SDS011;54503;55.784;49.138;2022-09-09T22:28:35;2.55;;;0.90;;
67712;SDS011;54503;55.784;49.138;2022-09-09T22:33:54;5.27;;;1.37;;
67712;SDS011;54503;55.784;49.138;2022-09-09T22:39:13;4.65;;;1.60;;
67712;SDS011;54503;55.784;49.138;2022-09-09T22:44:32;5.33;;;1.20;;
67712;SDS011;54503;55.784;49.138;2022-09-09T22:49:51;4.72;;;1.20;;
67712;SDS011;54503;55.784;49.138;2022-09-09T22:54:57;2.72;;;0.80;;
67712;SDS011;54503;55.784;49.138;2022-09-09T23:00:04;2.70;;;0.80;;
67712;SDS011;54503;55.784;49.138;2022-09-09T23:05:11;2.37;;;0.70;;
67712;SDS011;54503;55.784;49.138;2022-09-09T23:10:30;5.17;;;1.10;;
67712;SDS011;54503;55.784;49.138;2022-09-09T23:15:49;1.92;;;0.60;;
67712;SDS011;54503;55.784;49.138;2022-09-09T23:20:56;1.92;;;0.72;;
67712;SDS011;54503;55.784;49.138;2022-09-09T23:26:03;2.73;;;0.63;;
67712;SDS011;54503;55.784;49.138;2022-09-09T23:31:12;2.30;;;0.70;;
67712;SDS011;54503;55.784;49.138;2022-09-09T23:36:31;2.37;;;0.70;;
67712;SDS011;54503;55.784;49.138;2022-09-09T23:41:51;2.83;;;0.93;;
67712;SDS011;54503;55.784;49.138;2022-09-09T23:47:10;3.27;;;0.80;;
67712;SDS011;54503;55.784;49.138;2022-09-09T23:52:29;2.10;;;0.62;;
67712;SDS011;54503;55.784;49.138;2022-09-09T23:57:35;3.90;;;0.80;;
